sensor_id;sensor_type;location;lat;lon;timestamp;pressure;altitude;pressure_sealevel;temperature;humidity
24892;BME280;12954;50.688;10.908;2023-03-23T00:01:30;94737.66;;;10.84;44.76
24892;BME280;12954;50.688;10.908;2023-03-23T00:04:03;94726.28;;;10.87;44.64
24892;BME280;12954;50.688;10.908;2023-03-23T00:06:31;94726.06;;;10.84;44.55
24892;BME280;12954;50.688;10.908;2023-03-23T00:09:00;94747.06;;;10.87;44.34
24892;BME280;12954;50.688;10.908;2023-03-23T00:11:30;94738.84;;;10.92;44.40
24892;BME280;12954;50.688;10.908;2023-03-23T00:13:59;94728.97;;;10.87;44.43
24892;BME280;12954;50.688;10.908;2023-03-23T00:16:30;94721.44;;;10.98;44.10
24892;BME280;12954;50.688;10.908;2023-03-23T00:19:00;94719.44;;;11.03;43.85
24892;BME280;12954;50.688;10.908;2023-03-23T00:21:31;94724.53;;;10.91;44.33
24892;BME280;12954;50.688;10.908;2023-03-23T00:24:01;94740.47;;;10.79;44.54
24892;BME280;12954;50.688;10.908;2023-03-23T00:26:30;94687.63;;;10.51;44.88
24892;BME280;12954;50.688;10.908;2023-03-23T00:29:00;94725.50;;;10.73;45.03
24892;BME280;12954;50.688;10.908;2023-03-23T00:31:29;94717.34;;;11.00;44.53
24892;BME280;12954;50.688;10.908;2023-03-23T00:33:59;94658.59;;;10.48;44.73
24892;BME280;12954;50.688;10.908;2023-03-23T00:36:29;94704.88;;;10.77;45.04
24892;BME280;12954;50.688;10.908;2023-03-23T00:38:57;94699.63;;;10.72;45.18
24892;BME280;12954;50.688;10.908;2023-03-23T00:41:26;94704.69;;;10.87;44.73
24892;BME280;12954;50.688;10.908;2023-03-23T00:43:55;94715.69;;;10.77;45.13
24892;BME280;12954;50.688;10.908;2023-03-23T00:46:22;94709.69;;;10.80;45.02
24892;BME280;12954;50.688;10.908;2023-03-23T00:48:51;94713.59;;;10.74;45.13
24892;BME280;12954;50.688;10.908;2023-03-23T00:51:19;94723.09;;;10.58;45.50
24892;BME280;12954;50.688;10.908;2023-03-23T00:53:46;94706.31;;;10.61;45.75
24892;BME280;12954;50.688;10.908;2023-03-23T00:56:14;94705.94;;;10.40;45.77
24892;BME280;12954;50.688;10.908;2023-03-23T00:58:41;94683.53;;;10.26;45.85
24892;BME280;12954;50.688;10.908;2023-03-23T01:01:09;94706.28;;;10.75;45.29
24892;BME280;12954;50.688;10.908;2023-03-23T01:03:36;94698.03;;;10.44;45.69
24892;BME280;12954;50.688;10.908;2023-03-23T01:06:07;94736.19;;;10.65;45.93
24892;BME280;12954;50.688;10.908;2023-03-23T01:08:39;94667.84;;;10.28;46.17
24892;BME280;12954;50.688;10.908;2023-03-23T01:11:13;94725.28;;;10.56;46.30
24892;BME280;12954;50.688;10.908;2023-03-23T01:13:41;94706.72;;;10.54;46.35
24892;BME280;12954;50.688;10.908;2023-03-23T01:16:09;94698.63;;;10.54;46.33
24892;BME280;12954;50.688;10.908;2023-03-23T01:18:37;94704.13;;;10.63;46.35
24892;BME280;12954;50.688;10.908;2023-03-23T01:21:07;94675.34;;;10.45;46.25
24892;BME280;12954;50.688;10.908;2023-03-23T01:23:36;94712.31;;;10.58;46.63
24892;BME280;12954;50.688;10.908;2023-03-23T01:26:05;94694.72;;;10.61;46.73
24892;BME280;12954;50.688;10.908;2023-03-23T01:28:33;94713.53;;;10.52;46.94
24892;BME280;12954;50.688;10.908;2023-03-23T01:31:01;94706.53;;;10.65;46.78
24892;BME280;12954;50.688;10.908;2023-03-23T01:33:29;94700.69;;;10.71;46.74
24892;BME280;12954;50.688;10.908;2023-03-23T01:35:56;94696.31;;;10.75;46.46
24892;BME280;12954;50.688;10.908;2023-03-23T01:38:25;94697.91;;;10.76;46.62
24892;BME280;12954;50.688;10.908;2023-03-23T01:40:52;94704.09;;;10.77;46.65
24892;BME280;12954;50.688;10.908;2023-03-23T01:43:19;94691.34;;;10.55;47.23
24892;BME280;12954;50.688;10.908;2023-03-23T01:45:46;94704.72;;;10.46;47.38
24892;BME280;12954;50.688;10.908;2023-03-23T01:48:17;94696.75;;;10.55;47.39
24892;BME280;12954;50.688;10.908;2023-03-23T01:50:51;94713.53;;;10.52;47.45
24892;BME280;12954;50.688;10.908;2023-03-23T01:53:19;94691.31;;;10.28;47.84
24892;BME280;12954;50.688;10.908;2023-03-23T01:55:50;94717.81;;;10.39;47.83
24892;BME280;12954;50.688;10.908;2023-03-23T01:58:21;94707.34;;;10.38;47.95
24892;BME280;12954;50.688;10.908;2023-03-23T02:00:53;94678.53;;;10.20;48.12
24892;BME280;12954;50.688;10.908;2023-03-23T02:03:21;94707.69;;;10.31;48.19
24892;BME280;12954;50.688;10.908;2023-03-23T02:05:51;94709.53;;;10.49;48.14
24892;BME280;12954;50.688;10.908;2023-03-23T02:08:19;94688.13;;;10.26;48.24
24892;BME280;12954;50.688;10.908;2023-03-23T02:10:46;94715.53;;;10.46;48.43
24892;BME280;12954;50.688;10.908;2023-03-23T02:13:15;94703.69;;;10.29;48.53
24892;BME280;12954;50.688;10.908;2023-03-23T02:15:59;94728.31;;;10.41;48.76
24892;BME280;12954;50.688;10.908;2023-03-23T02:18:40;94717.91;;;10.34;48.90
24892;BME280;12954;50.688;10.908;2023-03-23T02:21:25;94722.22;;;10.35;48.92
24892;BME280;12954;50.688;10.908;2023-03-23T02:26:54;94700.34;;;10.37;49.00
24892;BME280;12954;50.688;10.908;2023-03-23T02:29:50;94674.94;;;10.11;49.12
24892;BME280;12954;50.688;10.908;2023-03-23T02:32:34;94710.19;;;10.41;49.05
24892;BME280;12954;50.688;10.908;2023-03-23T02:35:10;94704.03;;;10.41;49.17
24892;BME280;12954;50.688;10.908;2023-03-23T02:37:45;94704.53;;;10.43;49.13
24892;BME280;12954;50.688;10.908;2023-03-23T02:40:17;94698.94;;;10.39;49.20
24892;BME280;12954;50.688;10.908;2023-03-23T02:42:49;94683.75;;;10.43;49.19
24892;BME280;12954;50.688;10.908;2023-03-23T02:45:20;94676.16;;;10.45;49.40
24892;BME280;12954;50.688;10.908;2023-03-23T02:47:51;94642.41;;;10.21;49.49
24892;BME280;12954;50.688;10.908;2023-03-23T02:50:23;94666.78;;;10.43;49.47
24892;BME280;12954;50.688;10.908;2023-03-23T02:52:52;94678.97;;;10.40;49.60
24892;BME280;12954;50.688;10.908;2023-03-23T02:55:22;94670.56;;;10.42;49.52
24892;BME280;12954;50.688;10.908;2023-03-23T02:57:52;94667.50;;;10.35;49.66
24892;BME280;12954;50.688;10.908;2023-03-23T03:00:20;94681.06;;;10.43;49.64
24892;BME280;12954;50.688;10.908;2023-03-23T03:02:50;94682.16;;;10.42;49.80
24892;BME280;12954;50.688;10.908;2023-03-23T03:05:28;94679.78;;;10.41;49.85
24892;BME280;12954;50.688;10.908;2023-03-23T03:08:07;94674.28;;;10.46;49.79
24892;BME280;12954;50.688;10.908;2023-03-23T03:10:46;94669.59;;;10.38;49.95
24892;BME280;12954;50.688;10.908;2023-03-23T03:13:23;94655.00;;;10.39;50.03
24892;BME280;12954;50.688;10.908;2023-03-23T03:15:55;94662.47;;;10.42;50.11
24892;BME280;12954;50.688;10.908;2023-03-23T03:18:29;94651.63;;;10.47;49.91
24892;BME280;12954;50.688;10.908;2023-03-23T03:21:03;94630.03;;;10.47;49.98
24892;BME280;12954;50.688;10.908;2023-03-23T03:23:32;94636.94;;;10.39;50.15
24892;BME280;12954;50.688;10.908;2023-03-23T03:26:02;94652.97;;;10.31;50.21
24892;BME280;12954;50.688;10.908;2023-03-23T03:28:32;94644.88;;;10.31;50.09
24892;BME280;12954;50.688;10.908;2023-03-23T03:31:02;94645.81;;;10.40;50.13
24892;BME280;12954;50.688;10.908;2023-03-23T03:33:31;94657.19;;;10.37;50.25
24892;BME280;12954;50.688;10.908;2023-03-23T03:36:03;94636.63;;;10.14;50.45
24892;BME280;12954;50.688;10.908;2023-03-23T03:38:41;94660.97;;;10.36;50.13
24892;BME280;12954;50.688;10.908;2023-03-23T03:41:08;94651.81;;;10.37;50.16
24892;BME280;12954;50.688;10.908;2023-03-23T03:43:35;94649.00;;;10.42;50.12
24892;BME280;12954;50.688;10.908;2023-03-23T03:46:03;94640.44;;;10.40;50.25
24892;BME280;12954;50.688;10.908;2023-03-23T03:48:30;94638.22;;;10.28;50.30
24892;BME280;12954;50.688;10.908;2023-03-23T03:50:57;94651.00;;;10.36;50.32
24892;BME280;12954;50.688;10.908;2023-03-23T03:53:27;94645.94;;;10.35;50.42
24892;BME280;12954;50.688;10.908;2023-03-23T03:55:56;94650.19;;;10.36;50.40
24892;BME280;12954;50.688;10.908;2023-03-23T03:58:25;94639.41;;;10.36;50.31
24892;BME280;12954;50.688;10.908;2023-03-23T04:00:58;94637.84;;;10.35;50.40
24892;BME280;12954;50.688;10.908;2023-03-23T04:03:25;94639.94;;;10.38;50.30
24892;BME280;12954;50.688;10.908;2023-03-23T04:05:53;94637.53;;;10.36;50.41
24892;BME280;12954;50.688;10.908;2023-03-23T04:08:22;94643.50;;;10.33;50.49
24892;BME280;12954;50.688;10.908;2023-03-23T04:10:50;94625.44;;;10.34;50.39
24892;BME280;12954;50.688;10.908;2023-03-23T04:13:19;94644.72;;;10.41;50.08
24892;BME280;12954;50.688;10.908;2023-03-23T04:15:47;94647.09;;;10.29;50.41
24892;BME280;12954;50.688;10.908;2023-03-23T04:18:15;94656.75;;;10.30;50.69
24892;BME280;12954;50.688;10.908;2023-03-23T04:20:44;94674.94;;;10.24;50.63
24892;BME280;12954;50.688;10.908;2023-03-23T04:23:12;94670.47;;;10.20;50.72
24892;BME280;12954;50.688;10.908;2023-03-23T04:25:40;94669.38;;;10.21;50.74
24892;BME280;12954;50.688;10.908;2023-03-23T04:28:10;94684.53;;;10.17;50.91
24892;BME280;12954;50.688;10.908;2023-03-23T04:30:37;94672.94;;;10.30;50.46
24892;BME280;12954;50.688;10.908;2023-03-23T04:33:09;94674.94;;;10.24;50.61
24892;BME280;12954;50.688;10.908;2023-03-23T04:35:40;94688.63;;;10.28;50.46
24892;BME280;12954;50.688;10.908;2023-03-23T04:38:08;94684.91;;;10.24;50.59
24892;BME280;12954;50.688;10.908;2023-03-23T04:40:36;94676.97;;;10.32;50.57
24892;BME280;12954;50.688;10.908;2023-03-23T04:43:03;94671.53;;;10.19;50.83
24892;BME280;12954;50.688;10.908;2023-03-23T04:45:34;94675.63;;;10.30;50.69
24892;BME280;12954;50.688;10.908;2023-03-23T04:48:03;94680.31;;;10.24;51.17
24892;BME280;12954;50.688;10.908;2023-03-23T04:50:32;94670.25;;;10.30;51.81
24892;BME280;12954;50.688;10.908;2023-03-23T04:53:01;94666.56;;;10.26;52.07
24892;BME280;12954;50.688;10.908;2023-03-23T04:55:30;94639.59;;;9.98;52.55
24892;BME280;12954;50.688;10.908;2023-03-23T04:57:57;94655.16;;;9.88;53.10
24892;BME280;12954;50.688;10.908;2023-03-23T05:00:27;94637.41;;;9.73;53.18
24892;BME280;12954;50.688;10.908;2023-03-23T05:02:56;94681.53;;;10.04;53.04
24892;BME280;12954;50.688;10.908;2023-03-23T05:05:23;94693.69;;;10.02;53.03
24892;BME280;12954;50.688;10.908;2023-03-23T05:07:53;94680.44;;;10.19;53.52
24892;BME280;12954;50.688;10.908;2023-03-23T05:10:20;94691.59;;;9.99;53.91
24892;BME280;12954;50.688;10.908;2023-03-23T05:12:47;94678.28;;;9.75;53.92
24892;BME280;12954;50.688;10.908;2023-03-23T05:15:16;94684.69;;;9.79;54.11
24892;BME280;12954;50.688;10.908;2023-03-23T05:17:43;94693.50;;;9.98;54.19
24892;BME280;12954;50.688;10.908;2023-03-23T05:20:13;94691.59;;;9.85;54.57
24892;BME280;12954;50.688;10.908;2023-03-23T05:22:43;94704.03;;;9.81;55.10
24892;BME280;12954;50.688;10.908;2023-03-23T05:25:13;94677.47;;;9.61;55.50
24892;BME280;12954;50.688;10.908;2023-03-23T05:27:41;94693.03;;;9.64;55.89
24892;BME280;12954;50.688;10.908;2023-03-23T05:30:09;94706.78;;;9.63;56.13
24892;BME280;12954;50.688;10.908;2023-03-23T05:32:37;94706.25;;;9.79;55.21
24892;BME280;12954;50.688;10.908;2023-03-23T05:35:05;94683.94;;;9.74;55.26
24892;BME280;12954;50.688;10.908;2023-03-23T05:37:34;94701.69;;;9.61;55.28
24892;BME280;12954;50.688;10.908;2023-03-23T05:40:03;94698.19;;;9.61;55.52
24892;BME280;12954;50.688;10.908;2023-03-23T05:42:32;94709.78;;;9.61;55.89
24892;BME280;12954;50.688;10.908;2023-03-23T05:45:00;94692.44;;;9.67;56.06
24892;BME280;12954;50.688;10.908;2023-03-23T05:47:27;94698.47;;;9.59;56.43
24892;BME280;12954;50.688;10.908;2023-03-23T05:49:54;94703.28;;;9.62;56.40
24892;BME280;12954;50.688;10.908;2023-03-23T05:52:22;94699.41;;;9.68;56.70
24892;BME280;12954;50.688;10.908;2023-03-23T05:54:52;94698.31;;;9.69;56.70
24892;BME280;12954;50.688;10.908;2023-03-23T05:57:20;94703.59;;;9.74;56.60
24892;BME280;12954;50.688;10.908;2023-03-23T05:59:48;94694.44;;;9.75;56.12
24892;BME280;12954;50.688;10.908;2023-03-23T06:02:15;94702.09;;;9.68;56.31
24892;BME280;12954;50.688;10.908;2023-03-23T06:04:43;94697.97;;;9.57;56.37
24892;BME280;12954;50.688;10.908;2023-03-23T06:07:10;94721.38;;;9.75;56.65
24892;BME280;12954;50.688;10.908;2023-03-23T06:09:40;94731.94;;;9.72;57.02
24892;BME280;12954;50.688;10.908;2023-03-23T06:12:09;94732.75;;;9.72;57.27
24892;BME280;12954;50.688;10.908;2023-03-23T06:14:37;94734.94;;;9.70;57.59
24892;BME280;12954;50.688;10.908;2023-03-23T06:17:04;94744.00;;;9.74;57.58
24892;BME280;12954;50.688;10.908;2023-03-23T06:19:31;94702.66;;;9.52;57.60
24892;BME280;12954;50.688;10.908;2023-03-23T06:21:59;94723.72;;;9.63;57.79
24892;BME280;12954;50.688;10.908;2023-03-23T06:24:27;94716.56;;;9.59;57.70
24892;BME280;12954;50.688;10.908;2023-03-23T06:26:55;94750.03;;;9.53;58.01
24892;BME280;12954;50.688;10.908;2023-03-23T06:29:23;94733.66;;;9.49;58.26
24892;BME280;12954;50.688;10.908;2023-03-23T06:31:52;94744.50;;;9.44;58.33
24892;BME280;12954;50.688;10.908;2023-03-23T06:34:22;94726.34;;;9.68;58.18
24892;BME280;12954;50.688;10.908;2023-03-23T06:36:50;94736.25;;;9.54;58.68
24892;BME280;12954;50.688;10.908;2023-03-23T06:39:18;94723.47;;;9.46;59.12
24892;BME280;12954;50.688;10.908;2023-03-23T06:41:45;94742.59;;;9.44;59.33
24892;BME280;12954;50.688;10.908;2023-03-23T06:44:12;94737.19;;;9.63;59.26
24892;BME280;12954;50.688;10.908;2023-03-23T06:46:41;94730.84;;;9.40;59.80
24892;BME280;12954;50.688;10.908;2023-03-23T06:49:09;94727.44;;;9.35;60.38
24892;BME280;12954;50.688;10.908;2023-03-23T06:51:36;94740.78;;;9.40;60.37
24892;BME280;12954;50.688;10.908;2023-03-23T06:54:04;94758.63;;;9.36;60.40
24892;BME280;12954;50.688;10.908;2023-03-23T06:56:31;94759.94;;;9.38;60.48
24892;BME280;12954;50.688;10.908;2023-03-23T06:58:58;94753.16;;;9.41;60.52
24892;BME280;12954;50.688;10.908;2023-03-23T07:01:26;94720.16;;;9.17;60.34
24892;BME280;12954;50.688;10.908;2023-03-23T07:03:55;94751.06;;;9.38;60.60
24892;BME280;12954;50.688;10.908;2023-03-23T07:06:24;94745.09;;;9.41;60.61
24892;BME280;12954;50.688;10.908;2023-03-23T07:08:51;94761.75;;;9.43;61.00
24892;BME280;12954;50.688;10.908;2023-03-23T07:11:19;94754.84;;;9.37;61.23
24892;BME280;12954;50.688;10.908;2023-03-23T07:13:46;94744.16;;;9.32;61.55
24892;BME280;12954;50.688;10.908;2023-03-23T07:16:15;94750.75;;;9.39;61.19
24892;BME280;12954;50.688;10.908;2023-03-23T07:18:43;94744.16;;;9.32;61.42
24892;BME280;12954;50.688;10.908;2023-03-23T07:21:12;94753.38;;;9.44;61.31
24892;BME280;12954;50.688;10.908;2023-03-23T07:23:40;94755.19;;;9.49;61.42
24892;BME280;12954;50.688;10.908;2023-03-23T07:26:07;94754.63;;;9.52;61.59
24892;BME280;12954;50.688;10.908;2023-03-23T07:28:34;94689.91;;;9.06;61.72
24892;BME280;12954;50.688;10.908;2023-03-23T07:31:02;94749.31;;;9.47;61.56
24892;BME280;12954;50.688;10.908;2023-03-23T07:33:29;94744.66;;;9.53;61.52
24892;BME280;12954;50.688;10.908;2023-03-23T07:35:58;94741.88;;;9.58;61.39
24892;BME280;12954;50.688;10.908;2023-03-23T07:38:28;94730.50;;;9.61;61.39
24892;BME280;12954;50.688;10.908;2023-03-23T07:40:55;94727.72;;;9.66;61.49
24892;BME280;12954;50.688;10.908;2023-03-23T07:43:23;94723.91;;;9.53;61.57
24892;BME280;12954;50.688;10.908;2023-03-23T07:45:50;94742.88;;;9.62;61.83
24892;BME280;12954;50.688;10.908;2023-03-23T07:48:18;94748.47;;;9.65;61.92
24892;BME280;12954;50.688;10.908;2023-03-23T07:50:45;94741.50;;;9.64;61.94
24892;BME280;12954;50.688;10.908;2023-03-23T07:53:13;94759.75;;;9.67;62.04
24892;BME280;12954;50.688;10.908;2023-03-23T07:55:41;94748.16;;;9.85;61.34
24892;BME280;12954;50.688;10.908;2023-03-23T07:58:09;94760.00;;;9.84;61.30
24892;BME280;12954;50.688;10.908;2023-03-23T08:00:37;94758.50;;;9.78;61.64
24892;BME280;12954;50.688;10.908;2023-03-23T08:03:05;94745.84;;;9.79;61.85
24892;BME280;12954;50.688;10.908;2023-03-23T08:05:33;94751.25;;;9.92;61.77
24892;BME280;12954;50.688;10.908;2023-03-23T08:08:00;94738.78;;;9.96;61.59
24892;BME280;12954;50.688;10.908;2023-03-23T08:10:28;94768.75;;;10.09;61.87
24892;BME280;12954;50.688;10.908;2023-03-23T08:12:57;94746.09;;;10.10;62.03
24892;BME280;12954;50.688;10.908;2023-03-23T08:15:25;94755.28;;;10.09;62.31
24892;BME280;12954;50.688;10.908;2023-03-23T08:17:53;94758.16;;;10.12;61.85
24892;BME280;12954;50.688;10.908;2023-03-23T08:20:20;94754.59;;;10.17;61.60
24892;BME280;12954;50.688;10.908;2023-03-23T08:22:52;94762.41;;;10.32;61.15
24892;BME280;12954;50.688;10.908;2023-03-23T08:25:21;94775.31;;;10.35;61.29
24892;BME280;12954;50.688;10.908;2023-03-23T08:27:49;94762.25;;;10.42;60.94
24892;BME280;12954;50.688;10.908;2023-03-23T08:30:20;94738.44;;;10.17;61.11
24892;BME280;12954;50.688;10.908;2023-03-23T08:32:48;94770.31;;;10.42;60.81
24892;BME280;12954;50.688;10.908;2023-03-23T08:35:16;94755.97;;;10.46;60.72
24892;BME280;12954;50.688;10.908;2023-03-23T08:37:44;94762.06;;;10.52;60.63
24892;BME280;12954;50.688;10.908;2023-03-23T08:40:13;94768.44;;;10.56;60.49
24892;BME280;12954;50.688;10.908;2023-03-23T08:42:45;94767.75;;;10.64;59.93
24892;BME280;12954;50.688;10.908;2023-03-23T08:45:15;94760.25;;;10.47;60.28
24892;BME280;12954;50.688;10.908;2023-03-23T08:47:44;94775.84;;;10.78;59.15
24892;BME280;12954;50.688;10.908;2023-03-23T08:50:14;94791.22;;;10.50;60.16
24892;BME280;12954;50.688;10.908;2023-03-23T08:52:42;94783.13;;;10.50;60.39
24892;BME280;12954;50.688;10.908;2023-03-23T08:55:10;94798.41;;;10.54;60.87
24892;BME280;12954;50.688;10.908;2023-03-23T08:57:38;94758.22;;;10.26;60.71
24892;BME280;12954;50.688;10.908;2023-03-23T09:00:08;94769.44;;;10.46;60.92
24892;BME280;12954;50.688;10.908;2023-03-23T09:02:41;94742.88;;;10.67;60.42
24892;BME280;12954;50.688;10.908;2023-03-23T09:05:11;94748.16;;;10.45;60.40
24892;BME280;12954;50.688;10.908;2023-03-23T09:07:40;94784.63;;;10.83;60.51
24892;BME280;12954;50.688;10.908;2023-03-23T09:10:09;94794.03;;;10.72;60.68
24892;BME280;12954;50.688;10.908;2023-03-23T09:12:37;94782.53;;;10.80;59.83
24892;BME280;12954;50.688;10.908;2023-03-23T09:15:04;94792.72;;;10.83;59.16
24892;BME280;12954;50.688;10.908;2023-03-23T09:17:35;94772.94;;;10.47;60.14
24892;BME280;12954;50.688;10.908;2023-03-23T09:20:03;94790.03;;;10.70;59.96
24892;BME280;12954;50.688;10.908;2023-03-23T09:22:38;94797.00;;;10.57;60.35
24892;BME280;12954;50.688;10.908;2023-03-23T09:25:06;94796.31;;;10.65;60.34
24892;BME280;12954;50.688;10.908;2023-03-23T09:27:34;94801.31;;;10.58;60.65
24892;BME280;12954;50.688;10.908;2023-03-23T09:30:03;94787.13;;;10.66;60.61
24892;BME280;12954;50.688;10.908;2023-03-23T09:32:32;94801.63;;;10.70;60.60
24892;BME280;12954;50.688;10.908;2023-03-23T09:35:00;94787.22;;;10.75;60.41
24892;BME280;12954;50.688;10.908;2023-03-23T09:37:28;94799.72;;;10.84;59.82
24892;BME280;12954;50.688;10.908;2023-03-23T09:39:57;94783.81;;;10.83;60.48
24892;BME280;12954;50.688;10.908;2023-03-23T09:42:34;94785.22;;;10.80;60.96
24892;BME280;12954;50.688;10.908;2023-03-23T09:45:15;94777.25;;;10.75;60.59
24892;BME280;12954;50.688;10.908;2023-03-23T09:47:51;94781.44;;;10.81;60.29
24892;BME280;12954;50.688;10.908;2023-03-23T09:50:24;94782.03;;;11.05;59.18
24892;BME280;12954;50.688;10.908;2023-03-23T09:53:00;94791.94;;;10.96;59.15
24892;BME280;12954;50.688;10.908;2023-03-23T09:55:30;94796.03;;;10.94;59.45
24892;BME280;12954;50.688;10.908;2023-03-23T09:58:06;94775.34;;;10.76;60.00
24892;BME280;12954;50.688;10.908;2023-03-23T10:00:39;94809.53;;;10.94;60.14
24892;BME280;12954;50.688;10.908;2023-03-23T10:03:13;94805.00;;;11.03;59.65
24892;BME280;12954;50.688;10.908;2023-03-23T10:05:42;94821.59;;;10.96;59.49
24892;BME280;12954;50.688;10.908;2023-03-23T10:08:13;94814.19;;;10.88;59.44
24892;BME280;12954;50.688;10.908;2023-03-23T10:10:48;94823.78;;;10.94;59.65
24892;BME280;12954;50.688;10.908;2023-03-23T10:13:25;94805.22;;;10.79;59.46
24892;BME280;12954;50.688;10.908;2023-03-23T10:15:58;94807.41;;;10.91;58.92
24892;BME280;12954;50.688;10.908;2023-03-23T10:18:36;94800.00;;;10.83;59.54
24892;BME280;12954;50.688;10.908;2023-03-23T10:21:06;94795.44;;;10.97;58.88
24892;BME280;12954;50.688;10.908;2023-03-23T10:23:45;94796.22;;;11.11;58.60
24892;BME280;12954;50.688;10.908;2023-03-23T10:26:25;94798.53;;;10.90;59.20
24892;BME280;12954;50.688;10.908;2023-03-23T10:28:58;94811.00;;;10.86;59.65
24892;BME280;12954;50.688;10.908;2023-03-23T10:31:30;94814.38;;;11.19;58.51
24892;BME280;12954;50.688;10.908;2023-03-23T10:34:02;94813.41;;;11.01;59.13
24892;BME280;12954;50.688;10.908;2023-03-23T10:36:35;94823.41;;;11.14;58.14
24892;BME280;12954;50.688;10.908;2023-03-23T10:39:08;94821.19;;;11.03;58.60
24892;BME280;12954;50.688;10.908;2023-03-23T10:41:39;94804.81;;;10.99;58.67
24892;BME280;12954;50.688;10.908;2023-03-23T10:44:10;94807.22;;;11.14;58.33
24892;BME280;12954;50.688;10.908;2023-03-23T10:46:43;94814.59;;;11.23;57.73
24892;BME280;12954;50.688;10.908;2023-03-23T10:49:18;94798.50;;;11.18;57.94
24892;BME280;12954;50.688;10.908;2023-03-23T10:51:52;94802.59;;;11.29;57.49
24892;BME280;12954;50.688;10.908;2023-03-23T10:54:27;94812.50;;;11.20;57.09
24892;BME280;12954;50.688;10.908;2023-03-23T10:57:00;94813.19;;;11.25;56.98
24892;BME280;12954;50.688;10.908;2023-03-23T10:59:29;94818.19;;;11.32;56.90
24892;BME280;12954;50.688;10.908;2023-03-23T11:02:00;94789.47;;;11.49;55.91
24892;BME280;12954;50.688;10.908;2023-03-23T11:04:30;94805.53;;;11.54;54.64
24892;BME280;12954;50.688;10.908;2023-03-23T11:07:00;94792.06;;;11.41;55.32
24892;BME280;12954;50.688;10.908;2023-03-23T11:09:35;94792.66;;;11.38;55.91
24892;BME280;12954;50.688;10.908;2023-03-23T11:12:16;94794.94;;;11.58;55.16
24892;BME280;12954;50.688;10.908;2023-03-23T11:14:44;94802.66;;;11.51;55.36
24892;BME280;12954;50.688;10.908;2023-03-23T11:17:21;94797.31;;;11.59;54.82
24892;BME280;12954;50.688;10.908;2023-03-23T11:19:49;94801.75;;;11.42;55.22
24892;BME280;12954;50.688;10.908;2023-03-23T11:22:21;94789.16;;;11.37;55.07
24892;BME280;12954;50.688;10.908;2023-03-23T11:24:52;94799.81;;;11.56;54.50
24892;BME280;12954;50.688;10.908;2023-03-23T11:27:23;94706.34;;;11.10;54.51
24892;BME280;12954;50.688;10.908;2023-03-23T11:29:52;94811.84;;;11.86;54.47
24892;BME280;12954;50.688;10.908;2023-03-23T11:32:23;94796.72;;;12.07;54.08
24892;BME280;12954;50.688;10.908;2023-03-23T11:34:55;94809.56;;;12.01;54.54
24892;BME280;12954;50.688;10.908;2023-03-23T11:37:29;94818.47;;;12.24;53.09
24892;BME280;12954;50.688;10.908;2023-03-23T11:40:00;94793.84;;;12.25;52.22
24892;BME280;12954;50.688;10.908;2023-03-23T11:42:38;94800.19;;;11.99;53.21
24892;BME280;12954;50.688;10.908;2023-03-23T11:45:16;94803.38;;;12.01;52.83
24892;BME280;12954;50.688;10.908;2023-03-23T11:47:53;94793.59;;;11.91;53.21
24892;BME280;12954;50.688;10.908;2023-03-23T11:50:24;94826.63;;;11.88;53.69
24892;BME280;12954;50.688;10.908;2023-03-23T11:53:00;94804.53;;;12.08;52.78
24892;BME280;12954;50.688;10.908;2023-03-23T11:55:33;94775.19;;;11.93;52.94
24892;BME280;12954;50.688;10.908;2023-03-23T11:58:06;94788.94;;;12.36;52.38
24892;BME280;12954;50.688;10.908;2023-03-23T12:00:34;94817.03;;;12.26;52.78
24892;BME280;12954;50.688;10.908;2023-03-23T12:03:31;94821.72;;;12.12;53.17
24892;BME280;12954;50.688;10.908;2023-03-23T12:06:07;94799.31;;;12.12;52.87
24892;BME280;12954;50.688;10.908;2023-03-23T12:08:48;94810.19;;;11.98;53.12
24892;BME280;12954;50.688;10.908;2023-03-23T12:11:22;94811.66;;;12.04;53.09
24892;BME280;12954;50.688;10.908;2023-03-23T12:14:11;94811.41;;;11.70;53.92
24892;BME280;12954;50.688;10.908;2023-03-23T12:16:50;94802.09;;;11.76;54.45
24892;BME280;12954;50.688;10.908;2023-03-23T12:19:27;94830.31;;;11.70;55.14
24892;BME280;12954;50.688;10.908;2023-03-23T12:22:01;94825.13;;;11.60;55.00
24892;BME280;12954;50.688;10.908;2023-03-23T12:24:46;94820.72;;;11.64;55.19
24892;BME280;12954;50.688;10.908;2023-03-23T12:27:20;94788.41;;;11.59;54.96
24892;BME280;12954;50.688;10.908;2023-03-23T12:30:26;94817.50;;;11.76;55.67
24892;BME280;12954;50.688;10.908;2023-03-23T12:33:07;94839.59;;;12.00;54.29
24892;BME280;12954;50.688;10.908;2023-03-23T12:35:48;94830.34;;;11.92;54.67
24892;BME280;12954;50.688;10.908;2023-03-23T12:38:28;94816.63;;;11.53;56.07
24892;BME280;12954;50.688;10.908;2023-03-23T12:41:05;94813.06;;;11.44;56.39
24892;BME280;12954;50.688;10.908;2023-03-23T12:43:39;94793.75;;;11.37;56.66
24892;BME280;12954;50.688;10.908;2023-03-23T12:46:36;94819.34;;;11.53;55.91
24892;BME280;12954;50.688;10.908;2023-03-23T12:49:09;94826.16;;;11.37;56.51
24892;BME280;12954;50.688;10.908;2023-03-23T12:51:42;94806.59;;;11.18;56.97
24892;BME280;12954;50.688;10.908;2023-03-23T12:54:14;94811.94;;;11.45;56.68
24892;BME280;12954;50.688;10.908;2023-03-23T12:56:50;94783.16;;;11.27;56.94
24892;BME280;12954;50.688;10.908;2023-03-23T12:59:24;94800.16;;;11.41;56.64
24892;BME280;12954;50.688;10.908;2023-03-23T13:01:57;94770.19;;;11.29;56.88
24892;BME280;12954;50.688;10.908;2023-03-23T13:04:29;94796.28;;;11.69;56.40
24892;BME280;12954;50.688;10.908;2023-03-23T13:07:01;94740.22;;;11.52;55.74
24892;BME280;12954;50.688;10.908;2023-03-23T13:09:35;94790.06;;;11.82;56.49
24892;BME280;12954;50.688;10.908;2023-03-23T13:12:03;94803.97;;;11.76;56.93
24892;BME280;12954;50.688;10.908;2023-03-23T13:14:41;94797.50;;;11.85;57.21